Time;durP1;ratioP1;P1;durP2;ratioP2;P2;SDS_P1;SDS_P2;PMS_P1;PMS_P2;Temp;Humidity;BMP_temperature;BMP_pressure;BME280_temperature;BME280_humidity;BME280_pressure;Samples;Min_cycle;Max_cycle;Signal;HPM_P1;HPM_P2
2022/02/13 00:00:13;;;;;;;11.93;6.65;;;;;;;3.01;99.99;100737.72;5056923;28;20035;-72
2022/02/13 00:02:39;;;;;;;12.45;6.38;;;;;;;3.03;98.85;100740.22;5069880;28;20032;-72
2022/02/13 00:05:05;;;;;;;14.55;6.53;;;;;;;3.02;98.50;100736.63;5103976;28;20060;-72
2022/02/13 00:07:30;;;;;;;9.48;5.63;;;;;;;3.04;99.00;100736.41;5098110;28;20031;-72
2022/02/13 00:09:57;;;;;;;12.57;6.60;;;;;;;3.07;99.30;100735.94;5068838;28;20051;-72
2022/02/13 00:12:22;;;;;;;13.75;6.25;;;;;;;3.07;99.84;100724.94;5073862;28;20172;-72
2022/02/13 00:14:48;;;;;;;10.32;5.70;;;;;;;3.07;98.72;100742.25;5061402;28;20043;-72
2022/02/13 00:17:13;;;;;;;9.00;6.07;;;;;;;3.08;99.00;100738.41;5067265;28;20408;-72
2022/02/13 00:19:38;;;;;;;13.13;6.40;;;;;;;3.08;99.30;100721.13;5077598;28;20066;-72
2022/02/13 00:22:04;;;;;;;13.13;6.53;;;;;;;3.09;99.18;100717.28;5089493;28;20110;-72
2022/02/13 00:24:30;;;;;;;10.95;6.50;;;;;;;3.12;99.04;100727.78;5088928;28;20035;-72
2022/02/13 00:26:56;;;;;;;11.65;5.93;;;;;;;3.12;99.17;100722.28;5083235;28;20043;-72
2022/02/13 00:29:21;;;;;;;11.80;5.70;;;;;;;3.13;98.71;100722.06;5061441;28;20031;-72
2022/02/13 00:31:46;;;;;;;15.93;5.65;;;;;;;3.14;98.20;100711.91;5082438;28;20036;-73
2022/02/13 00:34:12;;;;;;;8.00;5.38;;;;;;;3.17;99.11;100710.59;5090126;28;20097;-71
2022/02/13 00:36:37;;;;;;;12.80;6.47;;;;;;;3.15;99.57;100702.63;5082723;27;20391;-72
2022/02/13 00:39:03;;;;;;;9.93;6.00;;;;;;;3.18;100.00;100706.81;5118448;27;20066;-72
2022/02/13 00:41:29;;;;;;;12.20;6.47;;;;;;;3.19;100.00;100700.22;5079374;28;20035;-72
2022/02/13 00:43:54;;;;;;;11.27;6.00;;;;;;;3.19;99.37;100694.75;5080981;28;20035;-72
2022/02/13 00:46:20;;;;;;;10.80;6.00;;;;;;;3.19;99.83;100689.25;5081324;28;20033;-72
2022/02/13 00:48:45;;;;;;;10.65;5.50;;;;;;;3.21;99.42;100687.13;5077619;28;20043;-72
2022/02/13 00:51:11;;;;;;;13.70;6.47;;;;;;;3.21;100.00;100692.59;5093589;28;20035;-72
2022/02/13 00:53:36;;;;;;;9.88;5.95;;;;;;;3.21;100.00;100676.97;5067136;28;20047;-72
2022/02/13 00:56:02;;;;;;;10.55;5.97;;;;;;;3.21;100.00;100676.97;5088889;28;20031;-72
2022/02/13 00:58:28;;;;;;;11.45;6.10;;;;;;;3.22;99.79;100675.88;5083077;27;20024;-72
2022/02/13 01:00:54;;;;;;;12.40;6.35;;;;;;;3.23;99.96;100673.97;5058496;28;20102;-72
2022/02/13 01:03:20;;;;;;;14.93;7.20;;;;;;;3.23;99.68;100666.59;5075520;28;20028;-72
2022/02/13 01:05:45;;;;;;;11.93;6.80;;;;;;;3.24;98.99;100671.00;5085403;27;20115;-72
2022/02/13 01:08:11;;;;;;;12.38;5.93;;;;;;;3.24;99.37;100660.00;5063860;28;20024;-72
2022/02/13 01:10:36;;;;;;;18.10;7.43;;;;;;;3.25;100.00;100666.31;5062605;28;20036;-72
2022/02/13 01:13:02;;;;;;;14.30;6.25;;;;;;;3.25;100.00;100661.66;5082426;28;20050;-72
2022/02/13 01:15:28;;;;;;;11.73;5.88;;;;;;;3.26;99.66;100662.50;5061985;28;20039;-71
2022/02/13 01:17:54;;;;;;;13.48;7.40;;;;;;;3.26;99.85;100657.00;5058522;28;20035;-72
2022/02/13 01:20:19;;;;;;;12.98;7.13;;;;;;;3.27;100.00;100662.25;5065602;27;20395;-72
2022/02/13 01:22:45;;;;;;;11.70;6.65;;;;;;;3.25;99.50;100650.69;5079266;28;20036;-72
2022/02/13 01:25:10;;;;;;;12.40;7.10;;;;;;;3.28;100.00;100655.69;5075736;28;20034;-72
2022/02/13 01:27:36;;;;;;;10.13;6.47;;;;;;;3.27;100.00;100648.53;5063026;28;20101;-72
2022/02/13 01:30:02;;;;;;;14.52;7.30;;;;;;;3.27;100.00;100651.28;5095722;28;20039;-72
2022/02/13 01:32:27;;;;;;;10.60;6.40;;;;;;;3.27;99.50;100648.53;5068582;28;20440;-72
2022/02/13 01:34:53;;;;;;;11.93;7.47;;;;;;;3.29;100.00;100640.06;5078020;28;20087;-72
2022/02/13 01:37:18;;;;;;;12.65;6.80;;;;;;;3.28;100.00;100636.47;5061224;28;20032;-72
2022/02/13 01:39:47;;;;;;;12.25;6.97;;;;;;;3.29;100.00;100624.44;5080032;28;20036;-72
2022/02/13 01:42:13;;;;;;;13.00;7.18;;;;;;;3.27;99.16;100617.53;5087369;28;20020;-72
2022/02/13 01:44:38;;;;;;;11.23;6.93;;;;;;;3.28;100.00;100614.50;5112209;28;20435;-71
2022/02/13 01:47:04;;;;;;;12.05;6.70;;;;;;;3.29;100.00;100612.63;5070677;28;20029;-71
2022/02/13 01:49:30;;;;;;;14.25;7.63;;;;;;;3.28;100.00;100597.22;5109660;28;20055;-72
2022/02/13 01:51:58;;;;;;;13.13;6.97;;;;;;;3.30;99.77;100603.31;5077405;28;20390;-72
2022/02/13 01:54:23;;;;;;;11.07;6.68;;;;;;;3.30;99.40;100595.06;5097350;28;20048;-72
2022/02/13 01:56:49;;;;;;;11.30;6.90;;;;;;;3.31;99.96;100589.31;5077213;28;20039;-72
2022/02/13 01:59:14;;;;;;;11.00;6.68;;;;;;;3.30;99.26;100579.44;5065188;28;20392;-72
2022/02/13 02:01:40;;;;;;;10.95;7.35;;;;;;;3.31;100.00;100564.63;5064903;28;20073;-72
2022/02/13 02:04:06;;;;;;;12.80;7.28;;;;;;;3.30;100.00;100560.22;5067373;28;20486;-72
2022/02/13 02:06:31;;;;;;;14.23;7.50;;;;;;;3.31;100.00;100555.56;5052727;28;20035;-71
2022/02/13 02:08:57;;;;;;;15.45;8.18;;;;;;;3.32;100.00;100551.75;5091974;28;20477;-71
2022/02/13 02:11:22;;;;;;;16.02;8.38;;;;;;;3.30;100.00;100541.00;5070080;28;20027;-72
2022/02/13 02:13:47;;;;;;;13.77;8.68;;;;;;;3.32;100.00;100538.84;5068360;28;20036;-72
2022/02/13 02:16:13;;;;;;;12.93;8.45;;;;;;;3.30;100.00;100530.00;5076840;28;20035;-72
2022/02/13 02:18:38;;;;;;;14.25;8.60;;;;;;;3.31;100.00;100517.13;5059119;28;20028;-72
2022/02/13 02:21:05;;;;;;;16.80;9.38;;;;;;;3.31;100.00;100517.13;5075946;28;20040;-72
2022/02/13 02:23:34;;;;;;;17.17;9.60;;;;;;;3.33;100.00;100514.97;5082850;27;20020;-72
2022/02/13 02:25:59;;;;;;;15.35;8.82;;;;;;;3.31;100.00;100512.44;5079108;28;20081;-72
2022/02/13 02:28:25;;;;;;;15.48;9.38;;;;;;;3.31;100.00;100506.97;5077312;28;20550;-72
2022/02/13 02:30:51;;;;;;;14.93;9.48;;;;;;;3.32;100.00;100505.91;5050521;28;20043;-72
2022/02/13 02:33:16;;;;;;;18.42;9.95;;;;;;;3.31;100.00;100495.97;5080263;27;20046;-72
2022/02/13 02:35:42;;;;;;;13.27;9.10;;;;;;;3.30;100.00;100494.34;5096526;27;20035;-72
2022/02/13 02:38:07;;;;;;;14.23;8.88;;;;;;;3.28;100.00;100493.72;5083729;27;20046;-72
2022/02/13 02:40:33;;;;;;;16.30;9.10;;;;;;;3.30;100.00;100477.84;5105057;28;20024;-72
2022/02/13 02:42:58;;;;;;;14.27;8.90;;;;;;;3.31;100.00;100485.00;5097819;27;20023;-71
2022/02/13 02:45:24;;;;;;;15.73;9.23;;;;;;;3.30;100.00;100477.84;5100799;27;20062;-72
2022/02/13 02:47:49;;;;;;;14.23;9.18;;;;;;;3.30;100.00;100472.38;5091414;28;20027;-72
2022/02/13 02:50:16;;;;;;;18.17;9.90;;;;;;;3.31;100.00;100463.03;5112874;27;20542;-72
2022/02/13 02:52:42;;;;;;;18.90;10.00;;;;;;;3.31;100.00;100460.28;5100125;28;20118;-72
2022/02/13 02:55:08;;;;;;;17.98;9.77;;;;;;;3.29;100.00;100447.94;5097080;28;20068;-72
2022/02/13 02:57:33;;;;;;;16.58;10.02;;;;;;;3.29;100.00;100450.69;5082520;27;20031;-71
2022/02/13 02:59:59;;;;;;;14.15;9.43;;;;;;;3.27;100.00;100445.41;5099623;28;20031;-71
2022/02/13 03:02:25;;;;;;;17.73;9.65;;;;;;;3.28;100.00;100449.00;5079740;28;20023;-72
2022/02/13 03:04:50;;;;;;;18.58;9.48;;;;;;;3.27;100.00;100450.09;5098114;28;20027;-72
2022/02/13 03:07:16;;;;;;;18.00;9.68;;;;;;;3.27;100.00;100450.09;5071118;28;20038;-72
2022/02/13 03:09:41;;;;;;;17.75;9.55;;;;;;;3.26;100.00;100441.03;5097799;28;20036;-71
2022/02/13 03:12:07;;;;;;;13.50;9.05;;;;;;;3.23;100.00;100436.03;5097927;28;20031;-72
2022/02/13 03:14:33;;;;;;;19.75;9.88;;;;;;;3.24;100.00;100423.97;5082654;28;20032;-72
2022/02/13 03:17:00;;;;;;;16.10;9.15;;;;;;;3.24;100.00;100428.63;5100073;28;20439;-72
2022/02/13 03:19:26;;;;;;;14.20;8.40;;;;;;;3.22;100.00;100417.88;5099693;28;20039;-71
2022/02/13 03:21:52;;;;;;;14.15;8.55;;;;;;;3.22;100.00;100419.78;5082356;28;20038;-72
2022/02/13 03:24:17;;;;;;;17.50;8.63;;;;;;;3.20;100.00;100410.97;5116709;28;20541;-72
2022/02/13 03:26:43;;;;;;;17.75;8.57;;;;;;;3.16;100.00;100410.63;5114099;28;20552;-72
2022/02/13 03:29:08;;;;;;;16.33;9.20;;;;;;;3.16;100.00;100405.16;5135143;28;20043;-71
2022/02/13 03:31:33;;;;;;;14.90;8.88;;;;;;;3.13;100.00;100394.66;5102701;27;20098;-71
2022/02/13 03:33:59;;;;;;;13.00;8.50;;;;;;;3.11;100.00;100392.16;5083959;28;20483;-72
2022/02/13 03:36:25;;;;;;;14.68;8.48;;;;;;;3.12;100.00;100382.00;5086226;27;20023;-71
2022/02/13 03:38:50;;;;;;;16.33;8.50;;;;;;;3.08;100.00;100378.13;5071948;27;20038;-71
2022/02/13 03:41:16;;;;;;;13.45;8.05;;;;;;;3.06;100.00;100372.03;5101130;27;20034;-72
2022/02/13 03:43:41;;;;;;;17.23;8.80;;;;;;;3.06;100.00;100369.28;5103759;27;20049;-72
2022/02/13 03:46:06;;;;;;;17.77;8.70;;;;;;;3.05;100.00;100367.63;5089429;28;20069;-71
2022/02/13 03:48:32;;;;;;;13.27;7.95;;;;;;;3.03;100.00;100359.63;5102239;27;20034;-72
2022/02/13 03:50:57;;;;;;;13.15;7.45;;;;;;;3.04;100.00;100355.84;5120978;27;20023;-72
2022/02/13 03:53:23;;;;;;;14.07;7.85;;;;;;;3.05;100.00;100354.75;5089909;27;20031;-72
2022/02/13 03:55:48;;;;;;;17.38;8.07;;;;;;;3.05;100.00;100362.16;5100295;27;20031;-71
2022/02/13 03:58:14;;;;;;;14.73;7.70;;;;;;;3.07;100.00;100360.00;5101951;27;20027;-72
2022/02/13 04:00:39;;;;;;;11.57;7.30;;;;;;;3.03;100.00;100351.41;5120005;27;20027;-72
2022/02/13 04:03:05;;;;;;;12.38;7.55;;;;;;;3.06;100.00;100345.41;5084665;27;20057;-72
2022/02/13 04:05:30;;;;;;;14.70;7.40;;;;;;;3.07;100.00;100349.03;5101512;27;20031;-71
2022/02/13 04:07:56;;;;;;;14.20;8.13;;;;;;;3.07;100.00;100352.59;5083373;28;20027;-71
2022/02/13 04:10:21;;;;;;;14.93;7.88;;;;;;;3.08;100.00;100337.78;5081489;27;20047;-72
2022/02/13 04:12:47;;;;;;;14.65;8.38;;;;;;;3.08;100.00;100342.44;5085191;27;20032;-72
2022/02/13 04:15:12;;;;;;;14.05;7.70;;;;;;;3.09;100.00;100347.69;5120410;27;20065;-72
2022/02/13 04:17:38;;;;;;;15.68;7.93;;;;;;;3.11;100.00;100331.78;5103390;27;20035;-72
2022/02/13 04:20:04;;;;;;;11.60;7.57;;;;;;;3.10;100.00;100332.88;5086279;27;20130;-72
2022/02/13 04:22:30;;;;;;;11.65;8.00;;;;;;;3.11;100.00;100329.03;5096046;27;20092;-72
2022/02/13 04:24:55;;;;;;;14.07;7.60;;;;;;;3.10;100.00;100321.09;5096241;28;20032;-71
2022/02/13 04:27:21;;;;;;;12.95;7.47;;;;;;;3.11;100.00;100323.56;5087394;27;20027;-71
2022/02/13 04:29:46;;;;;;;14.35;7.70;;;;;;;3.13;100.00;100323.31;5085702;27;20023;-72
2022/02/13 04:32:12;;;;;;;14.38;7.40;;;;;;;3.13;100.00;100318.66;5091052;28;20069;-71
2022/02/13 04:34:37;;;;;;;13.15;7.32;;;;;;;3.12;100.00;100327.13;5087704;28;20035;-71
2022/02/13 04:37:03;;;;;;;12.93;7.38;;;;;;;3.14;100.00;100316.75;5074376;28;20032;-72
2022/02/13 04:39:29;;;;;;;13.48;7.88;;;;;;;3.14;100.00;100305.78;5068610;28;20038;-71
2022/02/13 04:41:54;;;;;;;13.63;7.70;;;;;;;3.15;100.00;100310.19;5086522;28;20088;-72
2022/02/13 04:44:20;;;;;;;13.73;7.35;;;;;;;3.16;100.00;100313.75;5059901;28;20048;-72
2022/02/13 04:46:45;;;;;;;11.98;7.68;;;;;;;3.14;100.00;100292.03;5072286;28;20416;-71
2022/02/13 04:49:11;;;;;;;12.60;7.93;;;;;;;3.12;100.00;100284.09;5081845;28;20033;-72
2022/02/13 04:51:36;;;;;;;13.02;7.60;;;;;;;3.14;100.00;100275.56;5084563;28;20039;-72
2022/02/13 04:54:02;;;;;;;10.98;7.43;;;;;;;3.13;100.00;100268.44;5052098;28;20033;-72
2022/02/13 04:56:27;;;;;;;12.93;7.68;;;;;;;3.13;100.00;100262.94;5071839;28;20036;-71
2022/02/13 04:58:53;;;;;;;13.82;7.40;;;;;;;3.10;100.00;100247.81;5075254;28;20058;-72
2022/02/13 05:01:18;;;;;;;10.90;7.57;;;;;;;3.09;100.00;100237.94;5070895;28;20032;-72
2022/02/13 05:03:43;;;;;;;13.25;6.95;;;;;;;3.09;100.00;100237.94;5057927;28;21559;-71
2022/02/13 05:06:09;;;;;;;14.70;7.50;;;;;;;3.10;100.00;100230.53;5060468;28;20040;-71
2022/02/13 05:08:34;;;;;;;13.27;7.60;;;;;;;3.08;100.00;100228.03;5069262;28;20430;-71
2022/02/13 05:11:00;;;;;;;11.70;7.18;;;;;;;3.07;100.00;100237.34;5098009;28;20454;-72
2022/02/13 05:13:25;;;;;;;13.10;7.13;;;;;;;3.07;100.00;100231.88;5083293;28;20035;-72
2022/02/13 05:15:51;;;;;;;12.07;6.68;;;;;;;3.09;100.00;100220.63;5084339;28;20036;-72
2022/02/13 05:18:16;;;;;;;10.63;7.18;;;;;;;3.06;100.00;100208.22;5062641;28;20044;-72
2022/02/13 05:20:42;;;;;;;13.90;8.23;;;;;;;3.06;100.00;100208.22;5094233;28;20083;-72
2022/02/13 05:23:07;;;;;;;10.38;6.95;;;;;;;3.04;100.00;100210.41;5049752;28;20020;-71
2022/02/13 05:25:33;;;;;;;11.30;6.95;;;;;;;3.05;100.00;100200.28;5075660;28;20032;-71
2022/02/13 05:27:58;;;;;;;10.35;7.03;;;;;;;3.03;100.00;100196.94;5078483;28;20059;-72
2022/02/13 05:30:24;;;;;;;11.38;7.13;;;;;;;3.03;100.00;100205.16;5087167;28;20024;-71
2022/02/13 05:32:49;;;;;;;12.55;6.85;;;;;;;3.03;100.00;100203.25;5095019;28;20044;-71
2022/02/13 05:35:14;;;;;;;13.38;7.43;;;;;;;3.03;100.00;100194.19;5094877;28;20399;-71
2022/02/13 05:37:40;;;;;;;11.30;7.25;;;;;;;3.03;100.00;100169.50;5096593;28;20031;-71
2022/02/13 05:40:06;;;;;;;9.75;6.45;;;;;;;3.03;100.00;100180.47;5062406;28;20040;-72
2022/02/13 05:42:32;;;;;;;10.90;6.78;;;;;;;3.03;100.00;100173.06;5080572;28;20073;-71
2022/02/13 05:44:57;;;;;;;11.48;7.07;;;;;;;3.02;100.00;100174.16;5114676;28;20036;-71
2022/02/13 05:47:23;;;;;;;11.90;6.10;;;;;;;3.03;100.00;100153.03;5065767;28;20039;-71
2022/02/13 05:49:48;;;;;;;11.80;7.00;;;;;;;3.03;100.00;100155.78;5088171;28;20569;-72
2022/02/13 05:52:14;;;;;;;13.50;6.85;;;;;;;3.02;100.00;100135.75;5076739;28;20042;-72
2022/02/13 05:54:39;;;;;;;12.43;6.50;;;;;;;3.03;100.00;100142.88;5063877;28;20032;-71
2022/02/13 05:57:05;;;;;;;11.07;6.20;;;;;;;3.03;100.00;100139.31;5080023;28;20031;-71
2022/02/13 05:59:30;;;;;;;11.70;6.95;;;;;;;3.05;100.00;100135.25;5079278;28;20040;-71
2022/02/13 06:01:56;;;;;;;16.77;6.95;;;;;;;3.02;100.00;100130.28;5062300;28;20032;-71
2022/02/13 06:04:22;;;;;;;13.05;6.70;;;;;;;3.03;100.00;100133.84;5079448;28;20032;-71
2022/02/13 06:06:52;;;;;;;11.25;6.32;;;;;;;3.03;100.00;100131.09;5061760;28;20050;-72
2022/02/13 06:09:18;;;;;;;12.32;6.60;;;;;;;3.02;100.00;100110.25;5082042;28;20454;-71
2022/02/13 06:11:44;;;;;;;10.30;6.15;;;;;;;3.02;100.00;100112.97;5092659;28;20027;-72
2022/02/13 06:14:09;;;;;;;11.23;6.60;;;;;;;3.00;100.00;100098.69;5070421;28;20028;-72
2022/02/13 06:16:35;;;;;;;10.80;6.03;;;;;;;3.02;100.00;100108.31;5073438;28;20066;-72
2022/02/13 06:19:00;;;;;;;12.43;6.65;;;;;;;3.03;100.00;100098.16;5061881;28;20384;-71
2022/02/13 06:21:26;;;;;;;10.57;6.50;;;;;;;3.01;100.00;100095.69;5062872;28;20032;-72
2022/02/13 06:23:51;;;;;;;12.80;6.57;;;;;;;3.00;100.00;100091.28;5066004;28;20077;-72
2022/02/13 06:26:17;;;;;;;11.27;6.72;;;;;;;3.00;100.00;100088.53;5063625;28;20031;-71
2022/02/13 06:28:42;;;;;;;13.20;6.15;;;;;;;3.01;100.00;100078.38;5079539;28;20042;-71
2022/02/13 06:31:08;;;;;;;10.73;6.35;;;;;;;2.99;100.00;100078.66;5093845;28;20399;-72
2022/02/13 06:33:33;;;;;;;15.95;6.10;;;;;;;3.00;100.00;100079.47;5104257;28;20039;-71
2022/02/13 06:35:59;;;;;;;12.02;6.53;;;;;;;2.99;100.00;100078.66;5072228;27;20032;-72
2022/02/13 06:38:24;;;;;;;10.00;6.45;;;;;;;2.99;100.00;100072.34;5090192;27;20501;-71
2022/02/13 06:40:50;;;;;;;9.43;5.47;;;;;;;2.99;100.00;100067.69;5098709;27;20118;-71
2022/02/13 06:43:15;;;;;;;13.10;6.45;;;;;;;2.97;100.00;100063.53;5083689;28;20035;-71
2022/02/13 06:45:41;;;;;;;9.38;6.07;;;;;;;2.95;100.00;100054.72;5101487;27;20224;-71
2022/02/13 06:48:08;;;;;;;10.35;6.25;;;;;;;2.89;100.00;100049.16;5080741;27;20089;-71
2022/02/13 06:50:33;;;;;;;8.85;6.13;;;;;;;2.89;100.00;100054.66;5099043;27;20038;-72
2022/02/13 06:52:59;;;;;;;11.45;5.97;;;;;;;2.89;100.00;100045.59;5101811;27;20442;-72
2022/02/13 06:55:24;;;;;;;10.60;6.22;;;;;;;2.88;100.00;100050.25;5114525;28;20108;-72
2022/02/13 06:57:50;;;;;;;8.38;6.07;;;;;;;2.89;100.00;100043.69;5098463;28;20031;-72
2022/02/13 07:00:16;;;;;;;10.38;5.97;;;;;;;2.85;100.00;100036.22;5083753;27;20039;-71
2022/02/13 07:02:41;;;;;;;11.13;6.15;;;;;;;2.84;100.00;100042.78;5115506;28;20046;-71
2022/02/13 07:05:08;;;;;;;10.75;6.03;;;;;;;2.82;100.00;100029.34;5083848;28;20394;-72
2022/02/13 07:07:33;;;;;;;11.05;5.75;;;;;;;2.80;100.00;100017.78;5083603;28;20043;-72
2022/02/13 07:09:59;;;;;;;10.60;6.38;;;;;;;2.78;100.00;100019.94;5094600;28;20046;-71
2022/02/13 07:12:24;;;;;;;9.35;5.85;;;;;;;2.77;100.00;100020.22;5097841;28;20043;-72
2022/02/13 07:14:50;;;;;;;13.38;5.97;;;;;;;2.75;100.00;100014.16;5100711;28;20027;-72
2022/02/13 07:17:15;;;;;;;12.45;5.82;;;;;;;2.74;100.00;100002.34;5087919;28;20077;-72
2022/02/13 07:19:41;;;;;;;9.63;5.90;;;;;;;2.70;100.00;99995.72;5097537;28;20383;-71
2022/02/13 07:22:06;;;;;;;9.63;5.93;;;;;;;2.69;100.00;99988.56;5084435;28;20027;-72
2022/02/13 07:24:34;;;;;;;11.88;5.68;;;;;;;2.64;100.00;99985.75;5089915;28;20028;-72
2022/02/13 07:27:01;;;;;;;10.18;5.72;;;;;;;2.64;100.00;99983.03;5079013;28;20031;-71
2022/02/13 07:29:26;;;;;;;11.68;5.57;;;;;;;2.62;100.00;99982.47;5083271;28;20035;-72
2022/02/13 07:31:52;;;;;;;9.23;6.15;;;;;;;2.56;100.00;99986.22;5100528;28;20040;-72
2022/02/13 07:34:17;;;;;;;10.70;6.40;;;;;;;2.51;100.00;99987.00;5094626;28;20040;-71
2022/02/13 07:36:42;;;;;;;10.05;5.65;;;;;;;2.45;100.00;99983.34;5078951;28;20036;-71
2022/02/13 07:39:08;;;;;;;11.43;5.70;;;;;;;2.46;100.00;99984.16;5082770;28;20418;-71
2022/02/13 07:41:33;;;;;;;10.70;5.90;;;;;;;2.43;100.00;99971.81;5095060;28;20023;-72
2022/02/13 07:43:59;;;;;;;10.80;6.35;;;;;;;2.42;100.00;99972.91;5072368;28;20035;-71
2022/02/13 07:46:25;;;;;;;10.30;6.18;;;;;;;2.39;100.00;99975.28;5093137;28;20040;-72
2022/02/13 07:48:50;;;;;;;12.43;6.18;;;;;;;2.37;100.00;99972.81;5129539;28;20042;-71
2022/02/13 07:51:16;;;;;;;9.45;5.93;;;;;;;2.32;100.00;99970.00;5095052;28;20036;-72
2022/02/13 07:53:41;;;;;;;9.45;5.57;;;;;;;2.32;100.00;99971.91;5098304;28;20055;-71
2022/02/13 07:56:07;;;;;;;9.80;6.63;;;;;;;2.33;100.00;99966.16;5093312;28;20078;-71
2022/02/13 07:58:32;;;;;;;10.20;6.22;;;;;;;2.31;100.00;99967.50;5069291;28;20038;-71
2022/02/13 08:00:59;;;;;;;10.75;6.57;;;;;;;2.30;100.00;99958.47;5064627;28;20036;-72
2022/02/13 08:03:25;;;;;;;11.45;6.63;;;;;;;2.33;100.00;99965.34;5084431;28;20023;-71
2022/02/13 08:05:50;;;;;;;11.18;6.80;;;;;;;2.36;100.00;99968.41;5078120;28;20035;-71
2022/02/13 08:08:16;;;;;;;10.40;6.15;;;;;;;2.40;100.00;99963.25;5096504;28;20027;-71
2022/02/13 08:10:41;;;;;;;10.25;6.40;;;;;;;2.46;100.00;99960.31;5081942;28;20487;-71
2022/02/13 08:13:07;;;;;;;9.55;6.18;;;;;;;2.56;100.00;99956.06;5097879;28;20028;-71
2022/02/13 08:15:32;;;;;;;11.23;5.88;;;;;;;2.64;100.00;99952.88;5113467;28;20031;-71
2022/02/13 08:18:07;;;;;;;9.80;6.38;;;;;;;2.74;100.00;99952.19;5097665;27;20031;-72
2022/02/13 08:20:32;;;;;;;9.23;6.15;;;;;;;2.83;100.00;99956.13;5122813;27;20060;-71
2022/02/13 08:22:58;;;;;;;10.75;6.05;;;;;;;2.91;100.00;99948.25;5107171;27;20380;-71
2022/02/13 08:25:23;;;;;;;12.23;6.93;;;;;;;3.03;100.00;99944.53;5126338;27;20035;-72
2022/02/13 08:27:49;;;;;;;13.80;6.97;;;;;;;3.12;100.00;99927.38;5074243;28;20126;-71
2022/02/13 08:30:14;;;;;;;12.05;6.68;;;;;;;3.20;100.00;99923.31;5101803;28;20034;-71
2022/02/13 08:32:40;;;;;;;8.98;6.38;;;;;;;3.28;100.00;99917.34;5073353;28;20044;-72
2022/02/13 08:35:05;;;;;;;12.50;6.75;;;;;;;3.36;100.00;99922.34;5099133;27;20035;-71
2022/02/13 08:37:31;;;;;;;10.73;6.50;;;;;;;3.43;100.00;99919.41;5073985;28;20032;-72
2022/02/13 08:39:56;;;;;;;8.82;5.80;;;;;;;3.52;100.00;99925.25;5100822;28;20027;-71
2022/02/13 08:42:22;;;;;;;9.48;6.85;;;;;;;3.58;100.00;99911.28;5107338;27;20031;-72
2022/02/13 08:44:47;;;;;;;12.50;7.15;;;;;;;3.68;100.00;99902.31;5078628;28;20019;-71
2022/02/13 08:47:13;;;;;;;9.60;6.45;;;;;;;3.75;100.00;99904.84;5102293;27;20024;-71
2022/02/13 08:49:38;;;;;;;10.82;7.10;;;;;;;3.85;100.00;99893.94;5105346;28;20036;-71
2022/02/13 08:52:05;;;;;;;10.63;7.18;;;;;;;3.92;100.00;99885.44;5093330;27;20027;-72
2022/02/13 08:54:30;;;;;;;9.57;6.65;;;;;;;4.00;100.00;99873.94;5085252;28;20108;-72
2022/02/13 08:56:56;;;;;;;11.27;6.82;;;;;;;4.09;100.00;99869.59;5084598;28;20031;-71
2022/02/13 08:59:21;;;;;;;11.18;7.35;;;;;;;4.16;100.00;99863.88;5071359;27;20061;-72
2022/02/13 09:01:48;;;;;;;18.67;7.90;;;;;;;4.21;100.00;99880.41;5072543;28;20040;-72
2022/02/13 09:04:13;;;;;;;12.80;7.45;;;;;;;4.27;100.00;99868.31;5088171;28;20038;-72
2022/02/13 09:06:39;;;;;;;12.15;7.40;;;;;;;4.32;100.00;99873.00;5101584;28;20039;-72
2022/02/13 09:09:06;;;;;;;10.63;7.13;;;;;;;4.36;100.00;99854.88;5073341;27;20020;-72
2022/02/13 09:11:32;;;;;;;13.02;7.85;;;;;;;4.43;100.00;99863.69;5078649;27;20535;-72
2022/02/13 09:13:57;;;;;;;11.02;7.13;;;;;;;4.49;99.81;99851.63;5135018;27;20032;-72
2022/02/13 09:16:23;;;;;;;14.25;7.50;;;;;;;4.51;99.97;99838.44;5102619;28;20480;-72
2022/02/13 09:18:49;;;;;;;14.68;7.35;;;;;;;4.57;100.00;99831.00;5090193;28;20062;-71
2022/02/13 09:21:14;;;;;;;13.55;7.32;;;;;;;4.64;99.64;99831.59;5096742;27;20027;-72
2022/02/13 09:23:40;;;;;;;10.27;7.15;;;;;;;4.66;100.00;99832.97;5086879;27;20038;-71
2022/02/13 09:26:05;;;;;;;13.68;7.32;;;;;;;4.72;100.00;99824.75;5070728;28;20043;-71
2022/02/13 09:28:31;;;;;;;14.73;7.82;;;;;;;4.77;100.00;99813.75;5082215;28;20024;-71
2022/02/13 09:30:56;;;;;;;12.85;7.60;;;;;;;4.81;100.00;99803.84;5080817;28;20042;-72
2022/02/13 09:33:23;;;;;;;11.75;7.32;;;;;;;4.87;99.84;99808.25;5074713;28;20063;-71
2022/02/13 09:35:48;;;;;;;13.32;7.68;;;;;;;4.93;100.00;99801.66;5101104;27;20047;-71
2022/02/13 09:38:17;;;;;;;13.07;8.00;;;;;;;4.97;100.00;99794.50;5084645;27;20056;-72
2022/02/13 09:40:47;;;;;;;14.13;7.50;;;;;;;4.99;100.00;99784.06;5093169;28;20039;-72
2022/02/13 09:43:13;;;;;;;12.52;7.90;;;;;;;5.05;100.00;99777.44;5111185;27;20460;-71
2022/02/13 09:45:40;;;;;;;13.25;7.43;;;;;;;5.09;100.00;99773.03;5099180;27;20055;-71
2022/02/13 09:48:05;;;;;;;11.48;7.72;;;;;;;5.13;100.00;99771.41;5088080;28;20056;-71
2022/02/13 09:50:31;;;;;;;13.98;8.15;;;;;;;5.19;100.00;99772.22;5080389;28;20436;-72
2022/02/13 09:52:57;;;;;;;13.23;7.80;;;;;;;5.22;100.00;99768.09;5081359;27;20510;-72
2022/02/13 09:55:25;;;;;;;12.98;8.05;;;;;;;5.30;100.00;99764.78;5087710;27;20035;-72
2022/02/13 09:58:04;;;;;;;16.23;7.63;;;;;;;5.35;100.00;99762.84;5077027;28;20031;-72
2022/02/13 10:01:10;;;;;;;12.85;7.75;;;;;;;5.44;100.00;99760.34;5115904;27;20037;-71
2022/02/13 10:03:38;;;;;;;13.73;8.10;;;;;;;5.52;100.00;99764.47;5076292;28;20032;-72
2022/02/13 10:06:12;;;;;;;13.70;8.07;;;;;;;5.63;100.00;99765.25;5094151;27;20037;-72
2022/02/13 10:08:39;;;;;;;15.55;8.93;;;;;;;5.69;100.00;99748.44;5127602;27;20038;-72
2022/02/13 10:11:13;;;;;;;15.20;8.68;;;;;;;5.76;100.00;99743.44;5089026;28;20031;-71
2022/02/13 10:13:57;;;;;;;14.63;8.25;;;;;;;5.83;100.00;99727.44;5100634;27;20093;-71
2022/02/13 10:16:24;;;;;;;13.88;8.13;;;;;;;5.90;100.00;99723.56;5113316;27;20042;-71
2022/02/13 10:18:50;;;;;;;15.07;8.10;;;;;;;5.95;100.00;99726.31;5094688;27;20035;-71
2022/02/13 10:21:29;;;;;;;14.55;8.20;;;;;;;6.04;100.00;99719.94;5113561;27;20094;-71
2022/02/13 10:24:16;;;;;;;12.32;8.43;;;;;;;6.15;100.00;99711.59;5098995;27;20020;-72
2022/02/13 10:26:42;;;;;;;13.15;9.30;;;;;;;6.21;100.00;99702.19;5094901;28;20039;-72
2022/02/13 10:29:08;;;;;;;13.07;8.27;;;;;;;6.29;100.00;99685.03;5093587;27;20035;-72
2022/02/13 10:31:35;;;;;;;15.73;9.00;;;;;;;6.36;100.00;99696.59;5082129;28;20101;-72
2022/02/13 10:34:01;;;;;;;12.95;8.15;;;;;;;6.46;100.00;99695.69;5072557;28;20412;-72
2022/02/13 10:36:27;;;;;;;16.25;9.38;;;;;;;6.53;100.00;99685.16;5102364;28;20092;-72
2022/02/13 10:38:52;;;;;;;12.07;8.43;;;;;;;6.59;100.00;99686.78;5069847;28;20032;-72
2022/02/13 10:41:33;;;;;;;13.15;8.50;;;;;;;6.75;100.00;99657.13;5064933;28;20115;-72
2022/02/13 10:43:58;;;;;;;12.02;8.32;;;;;;;6.79;100.00;99658.19;5110314;27;20027;-71
2022/02/13 10:46:34;;;;;;;17.25;9.52;;;;;;;6.88;100.00;99656.47;5131910;27;20041;-71
2022/02/13 10:49:00;;;;;;;15.55;8.93;;;;;;;6.97;100.00;99634.56;5080873;28;20361;-71
2022/02/13 10:51:25;;;;;;;18.35;9.25;;;;;;;7.00;100.00;99641.44;5083616;27;20085;-72
2022/02/13 10:53:51;;;;;;;16.25;9.15;;;;;;;7.04;100.00;99634.22;5095026;27;20118;-71
2022/02/13 10:56:18;;;;;;;16.02;8.73;;;;;;;7.08;100.00;99647.16;5109709;28;20713;-72
2022/02/13 10:58:43;;;;;;;16.02;9.23;;;;;;;7.16;100.00;99631.88;5101808;28;20118;-71
2022/02/13 11:01:08;;;;;;;14.20;9.50;;;;;;;7.20;100.00;99632.94;5080564;28;20040;-72
2022/02/13 11:03:35;;;;;;;14.80;9.30;;;;;;;7.22;100.00;99629.91;5114777;28;20032;-71
2022/02/13 11:06:05;;;;;;;17.10;8.65;;;;;;;7.25;99.91;99630.13;5085701;28;20474;-72
2022/02/13 11:08:40;;;;;;;20.10;9.57;;;;;;;7.30;100.00;99632.81;5078424;28;20023;-72
2022/02/13 11:11:05;;;;;;;14.65;9.45;;;;;;;7.30;100.00;99626.47;5113482;28;20122;-71
2022/02/13 11:13:33;;;;;;;19.27;10.32;;;;;;;7.28;100.00;99601.91;5098842;28;20035;-72
2022/02/13 11:15:58;;;;;;;19.60;10.02;;;;;;;7.30;100.00;99602.44;5078228;28;20110;-71